createdAt,value
2022-08-11T00:09:41.329Z,97975.38
2022-08-11T00:20:12.583Z,97987.50
2022-08-11T00:30:12.071Z,97990.19
2022-08-11T00:40:22.696Z,97981.81
2022-08-11T00:50:43.047Z,97992.56
2022-08-11T01:01:09.319Z,97992.50
2022-08-11T01:11:20.493Z,98000.38
2022-08-11T01:21:44.011Z,97986.13
2022-08-11T01:31:57.460Z,97986.44
2022-08-11T01:42:39.844Z,97987.34
2022-08-11T01:52:54.279Z,97979.69
2022-08-11T02:03:18.651Z,97975.56
2022-08-11T02:13:47.356Z,97965.88
2022-08-11T02:24:05.325Z,97962.56
2022-08-11T02:34:28.488Z,97951.22
2022-08-11T02:44:55.679Z,97960.59
2022-08-11T02:55:44.676Z,97954.31
2022-08-11T03:06:07.596Z,97947.56
2022-08-11T03:16:45.962Z,97947.09
2022-08-11T03:27:11.008Z,97963.66
2022-08-11T03:37:43.429Z,97955.81
2022-08-11T03:47:58.218Z,97956.88
2022-08-11T03:58:26.953Z,97958.28
2022-08-11T04:09:12.190Z,97955.41
2022-08-11T04:19:43.695Z,97947.78
2022-08-11T04:30:05.235Z,97956.34
2022-08-11T04:40:40.039Z,97947.44
2022-08-11T04:51:31.375Z,97958.34
2022-08-11T05:01:42.073Z,97972.97
2022-08-11T05:12:02.463Z,97979.84
2022-08-11T05:22:27.340Z,97977.34
2022-08-11T05:32:59.339Z,97974.06
2022-08-11T05:43:30.243Z,97983.78
2022-08-11T05:53:50.723Z,97979.22
2022-08-11T06:04:14.558Z,97977.53
2022-08-11T06:14:16.655Z,97972.06
2022-08-11T06:24:19.279Z,97972.72
2022-08-11T06:34:37.701Z,97959.97
2022-08-11T06:45:06.801Z,97953.72
2022-08-11T06:55:58.063Z,97950.28
2022-08-11T07:05:46.102Z,97941.38
2022-08-11T07:16:12.464Z,97938.13
2022-08-11T07:26:30.062Z,97923.53
2022-08-11T07:36:35.031Z,97913.88
2022-08-11T07:46:59.892Z,97925.69
2022-08-11T07:57:46.082Z,97925.22
2022-08-11T08:08:06.600Z,97908.44
2022-08-11T08:18:25.949Z,97906.50
2022-08-11T08:28:32.565Z,97901.56
2022-08-11T08:38:34.255Z,97888.78
2022-08-11T08:48:36.985Z,97888.38
2022-08-11T08:58:41.681Z,97894.16
2022-08-11T09:08:44.946Z,97886.72
2022-08-11T09:18:46.739Z,97886.34
2022-08-11T09:28:50.138Z,97897.53
2022-08-11T09:39:11.964Z,97885.63
2022-08-11T09:49:15.202Z,97876.03
2022-08-11T09:59:22.433Z,97863.31
2022-08-11T10:09:25.275Z,97860.22
2022-08-11T10:19:27.432Z,97844.94
2022-08-11T10:29:51.082Z,97829.59
2022-08-11T10:39:56.327Z,97825.44
2022-08-11T10:50:17.621Z,97826.66
2022-08-11T11:00:19.280Z,97802.81
2022-08-11T11:10:21.700Z,97804.66
2022-08-11T11:20:37.221Z,97807.50
2022-08-11T11:31:15.619Z,97813.22
2022-08-11T11:41:26.692Z,97808.09
2022-08-11T11:51:28.607Z,97806.69
2022-08-11T12:01:32.111Z,97801.41
2022-08-11T12:11:53.611Z,97799.34
2022-08-11T12:22:15.403Z,97773.44
2022-08-11T12:32:18.616Z,97764.56
2022-08-11T12:42:39.307Z,97760.91
2022-08-11T12:52:50.189Z,97754.34
2022-08-11T13:03:12.132Z,97745.81
2022-08-11T13:13:53.853Z,97728.06
2022-08-11T13:23:38.785Z,97727.00
2022-08-11T13:33:43.565Z,97708.16
2022-08-11T13:43:45.296Z,97713.78
2022-08-11T13:53:47.637Z,97695.53
2022-08-11T14:04:30.469Z,97691.41
2022-08-11T14:14:17.495Z,97682.63
2022-08-11T14:24:19.263Z,97674.16
2022-08-11T14:34:23.073Z,97659.88
2022-08-11T14:44:44.889Z,97661.47
2022-08-11T14:55:07.715Z,97661.31
2022-08-11T15:05:11.181Z,97648.78
2022-08-11T15:15:32.193Z,97646.78
2022-08-11T15:25:36.742Z,97637.81
2022-08-11T15:35:57.475Z,97637.16
2022-08-11T15:46:03.451Z,97622.06
2022-08-11T15:56:06.889Z,97621.28
2022-08-11T16:06:08.693Z,97616.03
2022-08-11T16:16:17.040Z,97613.28
2022-08-11T16:27:10.439Z,97602.59
2022-08-11T16:37:05.980Z,97599.41
2022-08-11T16:47:12.532Z,97592.00
2022-08-11T16:57:42.066Z,97590.78
2022-08-11T17:08:04.089Z,97604.16
2022-08-11T17:18:07.688Z,97596.00
2022-08-11T17:28:11.832Z,97615.97
2022-08-11T17:38:20.394Z,97611.97
2022-08-11T17:48:28.571Z,97611.25
2022-08-11T17:58:50.893Z,97632.50
2022-08-11T18:09:12.299Z,97634.53
2022-08-11T18:19:32.945Z,97635.47
2022-08-11T18:30:00.841Z,97647.91
2022-08-11T18:40:27.196Z,97653.44
2022-08-11T18:51:29.665Z,97672.06
2022-08-11T19:01:31.691Z,97681.25
2022-08-11T19:11:53.882Z,97704.91
2022-08-11T19:22:15.367Z,97711.94
2022-08-11T19:32:38.451Z,97713.22
2022-08-11T19:43:01.571Z,97718.22
2022-08-11T19:53:23.803Z,97724.03
2022-08-11T20:03:44.042Z,97717.63
2022-08-11T20:14:05.187Z,97730.97
2022-08-11T20:24:26.788Z,97742.44
2022-08-11T20:34:49.191Z,97756.78
2022-08-11T20:45:19.556Z,97764.28
2022-08-11T20:55:53.481Z,97776.63
2022-08-11T21:06:14.850Z,97777.59
2022-08-11T21:16:54.921Z,97777.31
2022-08-11T21:27:16.410Z,97766.75
2022-08-11T21:37:46.148Z,97760.00
2022-08-11T21:48:11.954Z,97772.56
2022-08-11T21:58:32.826Z,97772.09
2022-08-11T22:08:53.164Z,97765.16
2022-08-11T22:19:14.067Z,97775.13
2022-08-11T22:29:38.041Z,97768.66
2022-08-11T22:40:11.313Z,97761.56
2022-08-11T22:50:32.098Z,97763.44
2022-08-11T23:00:52.682Z,97760.44
2022-08-11T23:11:15.045Z,97752.56
2022-08-11T23:21:35.646Z,97754.94
2022-08-11T23:31:57.034Z,97753.47
2022-08-11T23:42:17.387Z,97747.63
2022-08-11T23:52:37.862Z,97752.78
